Forty Two — WDD4780 — position and weather

sailwx.info

Track history (hours):
 
Tides and Currents Weather Stations Pressure Air Temp Water Temp Dewpoint Dewpoint Depression Visibility Wind Speed Wind Dir Waves Ship Positions

Forty Two

Owner: allen, christopher h, port angeles, WA. More information available from US FCC via Universal Licensing System and Coast Guard Vessel Documentation Center.

Last reported at 2017-Feb-25 04:33 UTC. Time now 2017-Feb-26 21:35 UTC.
Position N 29°49' W 092°08'.

Length 38 m.

Type: Passenger vessel. MMSI: 367455780.

Date/timePositionNaut miles runAvg speedWind from/ knotsBaromVisibWave heightAir tempDewpointWater temp
2017-Feb-25 04:33N 29°49' W 092°08'0 0.0
2017-Feb-25 03:33N 29°49' W 092°08'0 0.0
2017-Feb-25 02:33N 29°49' W 092°08'0 0.0
2017-Feb-25 01:33N 29°49' W 092°08'0 0.0
2017-Feb-25 00:33N 29°49' W 092°08'0 0.0
2017-Feb-24 23:33N 29°49' W 092°08'4 3.8
2017-Feb-24 22:33N 29°47' W 092°11'1 0.7
2017-Feb-24 21:34N 29°47' W 092°10'1513.9
2017-Feb-24 20:29N 29°33' W 092°18'0 0.0
2017-Feb-23 06:09N 29°33' W 092°18'1 1.1
2017-Feb-23 05:33N 29°34' W 092°18'1514.8
2017-Feb-23 04:33N 29°47' W 092°10'3 3.3
2017-Feb-23 03:33N 29°49' W 092°08'0 0.0
2017-Feb-23 02:33N 29°49' W 092°08'  
2017-Feb-20 22:32N 29°49' W 092°08'0 0.0
2017-Feb-20 21:33N 29°49' W 092°08'0 0.0
2017-Feb-20 20:33N 29°49' W 092°08'0 0.0
2017-Feb-20 19:33N 29°49' W 092°08'0 0.0
2017-Feb-20 18:33N 29°49' W 092°08'0 0.0
2017-Feb-20 17:33N 29°49' W 092°08'0 0.0
2017-Feb-20 16:33N 29°49' W 092°08'0 0.0
2017-Feb-20 15:33N 29°49' W 092°08'0 0.0
2017-Feb-20 14:33N 29°49' W 092°08'0 0.0
2017-Feb-20 13:33N 29°49' W 092°08'0 0.0
2017-Feb-20 12:33N 29°49' W 092°08'0 0.0
2017-Feb-20 11:33N 29°49' W 092°08'0 0.0
2017-Feb-20 10:33N 29°49' W 092°08'0 0.0
2017-Feb-20 09:33N 29°49' W 092°08'0 0.0
2017-Feb-20 08:33N 29°49' W 092°08'0 0.0
2017-Feb-20 07:33N 29°49' W 092°08'0 0.0
2017-Feb-20 06:33N 29°49' W 092°08'0 0.0
2017-Feb-20 05:33N 29°49' W 092°08'0 0.0
2017-Feb-20 04:33N 29°49' W 092°08'0 0.0
2017-Feb-20 03:33N 29°49' W 092°08'0 0.0
2017-Feb-20 02:33N 29°49' W 092°08'0 0.0
2017-Feb-20 01:33N 29°49' W 092°08'0 0.0
2017-Feb-20 00:33N 29°49' W 092°08'0 0.0
2017-Feb-19 23:33N 29°49' W 092°08'0 0.0
2017-Feb-19 22:33N 29°49' W 092°08'0 0.0
2017-Feb-19 21:33N 29°49' W 092°08'0 0.0
2017-Feb-19 20:33N 29°49' W 092°08'0 0.0
2017-Feb-19 19:33N 29°49' W 092°08'0 0.0
2017-Feb-19 18:33N 29°49' W 092°08'0 0.0
2017-Feb-19 17:33N 29°49' W 092°08'0 0.0
2017-Feb-19 16:33N 29°49' W 092°08'0 0.0
2017-Feb-19 15:33N 29°49' W 092°08'0 0.0
2017-Feb-19 14:33N 29°49' W 092°08'0 0.0
2017-Feb-19 13:33N 29°49' W 092°08'0 0.0
2017-Feb-19 12:33N 29°49' W 092°08'0 0.0
2017-Feb-19 11:31N 29°49' W 092°08'0 0.0
2017-Feb-19 10:33N 29°49' W 092°08'0 0.0
2017-Feb-19 09:33N 29°49' W 092°08'0 0.0
2017-Feb-19 08:33N 29°49' W 092°08'0 0.0
2017-Feb-19 07:33N 29°49' W 092°08'0 0.0
2017-Feb-19 05:33N 29°49' W 092°08'0 0.0
2017-Feb-19 04:33N 29°49' W 092°08'0 0.0
2017-Feb-19 03:33N 29°49' W 092°08'0 0.0
2017-Feb-19 02:33N 29°49' W 092°08'0 0.0
2017-Feb-19 01:33N 29°49' W 092°08'0 0.0
2017-Feb-19 00:33N 29°49' W 092°08'0 0.0
2017-Feb-18 23:33N 29°49' W 092°08'0 0.0
2017-Feb-18 22:33N 29°49' W 092°08'0 0.0
2017-Feb-18 21:33N 29°49' W 092°08'0 0.0
2017-Feb-18 20:33N 29°49' W 092°08'0 0.0
2017-Feb-18 19:33N 29°49' W 092°08'0 0.0
2017-Feb-18 18:33N 29°49' W 092°08'0 0.0
2017-Feb-18 17:33N 29°49' W 092°08'0 0.0
2017-Feb-18 16:33N 29°49' W 092°08'0 0.0
2017-Feb-18 15:33N 29°49' W 092°08'0 0.0
2017-Feb-18 14:33N 29°49' W 092°08'0 0.0
2017-Feb-18 13:33N 29°49' W 092°08'0 0.0
2017-Feb-18 12:33N 29°49' W 092°08'0 0.0
2017-Feb-18 11:33N 29°49' W 092°08'0 0.0
2017-Feb-18 10:33N 29°49' W 092°08'0 0.0
2017-Feb-18 09:33N 29°49' W 092°08'0 0.0
2017-Feb-18 05:33N 29°49' W 092°08'0 0.0
2017-Feb-18 04:34N 29°49' W 092°08'0 0.0
2017-Feb-18 03:34N 29°49' W 092°08'0 0.0
2017-Feb-18 02:34N 29°49' W 092°08'0 0.0
2017-Feb-18 01:34N 29°49' W 092°08'0 0.0
2017-Feb-18 00:34N 29°49' W 092°08'0 0.0
2017-Feb-17 23:34N 29°49' W 092°08'0 0.0
2017-Feb-17 22:34N 29°49' W 092°08'0 0.0
2017-Feb-17 21:34N 29°49' W 092°08'0 0.0
2017-Feb-17 20:33N 29°49' W 092°08'0 0.0
2017-Feb-17 19:34N 29°49' W 092°08'0 0.0
2017-Feb-17 18:33N 29°49' W 092°08'0 0.0
2017-Feb-17 17:33N 29°49' W 092°08'0 0.0
2017-Feb-17 16:33N 29°49' W 092°08'0 0.0
2017-Feb-17 15:34N 29°49' W 092°08'0 0.0
2017-Feb-17 14:34N 29°49' W 092°08'0 0.0
2017-Feb-17 13:33N 29°49' W 092°08'0 0.0
2017-Feb-17 12:34N 29°49' W 092°08'0 0.0
2017-Feb-17 11:34N 29°49' W 092°08'0 0.0
2017-Feb-17 10:33N 29°49' W 092°08'0 0.0
2017-Feb-17 05:33N 29°49' W 092°08'0 0.0
2017-Feb-17 04:33N 29°49' W 092°08'0 0.0
2017-Feb-17 03:33N 29°49' W 092°08'0 0.0
2017-Feb-17 02:33N 29°49' W 092°08'0 0.0
2017-Feb-17 01:33N 29°49' W 092°08'0 0.0
2017-Feb-17 00:33N 29°49' W 092°08'0 0.0
2017-Feb-16 23:33N 29°49' W 092°08'0 0.0
2017-Feb-16 22:33N 29°49' W 092°08'0 0.0
2017-Feb-16 21:33N 29°49' W 092°08'0 0.0
2017-Feb-16 20:33N 29°49' W 092°08'0 0.0
2017-Feb-16 19:33N 29°49' W 092°08'0 0.0
2017-Feb-16 18:33N 29°49' W 092°08'0 0.0
2017-Feb-16 17:33N 29°49' W 092°08'0 0.0
2017-Feb-16 16:33N 29°49' W 092°08'0 0.0
2017-Feb-16 15:33N 29°49' W 092°08'0 0.0
2017-Feb-16 14:33N 29°49' W 092°08'0 0.0
2017-Feb-16 13:33N 29°49' W 092°08'0 0.0
2017-Feb-16 12:33N 29°49' W 092°08'0 0.0
2017-Feb-16 11:33N 29°49' W 092°08'0 0.0
2017-Feb-16 10:33N 29°49' W 092°08'0 0.0
2017-Feb-16 09:33N 29°49' W 092°08'0 0.0
2017-Feb-16 08:33N 29°49' W 092°08'0 0.0
2017-Feb-16 07:33N 29°49' W 092°08'0 0.0
2017-Feb-16 06:14N 29°49' W 092°08'0 0.0
2017-Feb-16 05:33N 29°49' W 092°08'0 0.0
2017-Feb-16 04:33N 29°49' W 092°08'0 0.0
2017-Feb-16 03:33N 29°49' W 092°08'0 0.0
2017-Feb-16 02:33N 29°49' W 092°08'0 0.0
2017-Feb-16 01:33N 29°49' W 092°08'0 0.0
2017-Feb-16 00:33N 29°49' W 092°08'0 0.0
2017-Feb-15 23:33N 29°49' W 092°08'1 0.5
2017-Feb-15 22:33N 29°49' W 092°08'2 2.3
2017-Feb-15 21:33N 29°47' W 092°09'1 1.1
2017-Feb-15 20:33N 29°47' W 092°10'1 0.7
2017-Feb-15 19:33N 29°47' W 092°11'0 0.0
2017-Feb-15 18:33N 29°47' W 092°11'0 0.0
2017-Feb-15 17:33N 29°47' W 092°11'0 0.4
2017-Feb-15 16:33N 29°47' W 092°11'3 3.4
2017-Feb-15 15:33N 29°49' W 092°08'1 0.6
2017-Feb-15 14:33N 29°49' W 092°08'0 0.0
2017-Feb-15 13:33N 29°49' W 092°08'0 0.0
2017-Feb-15 12:33N 29°49' W 092°08'0 0.0
2017-Feb-15 11:33N 29°49' W 092°08'0 0.0
2017-Feb-15 05:33N 29°49' W 092°08'  
Track history (hours):
 
Tides and Currents Weather Stations Pressure Air Temp Water Temp Dewpoint Dewpoint Depression Visibility Wind Speed Wind Dir Waves Ship Positions

Forty Two

Owner: allen, christopher h, port angeles, WA. More information available from US FCC via Universal Licensing System and Coast Guard Vessel Documentation Center.

Last reported at 2017-Feb-25 04:33 UTC. Time now 2017-Feb-26 21:35 UTC.
Position N 29°49' W 092°08'.

Length 38 m.

Type: Passenger vessel. MMSI: 367455780.

Date/timePositionNaut miles runAvg speedWind from/ knotsBaromVisibWave heightAir tempDewpointWater temp
2017-Feb-25 04:33N 29°49' W 092°08'0 0.0
2017-Feb-25 03:33N 29°49' W 092°08'0 0.0
2017-Feb-25 02:33N 29°49' W 092°08'0 0.0
2017-Feb-25 01:33N 29°49' W 092°08'0 0.0
2017-Feb-25 00:33N 29°49' W 092°08'0 0.0
2017-Feb-24 23:33N 29°49' W 092°08'4 3.8
2017-Feb-24 22:33N 29°47' W 092°11'1 0.7
2017-Feb-24 21:34N 29°47' W 092°10'1513.9
2017-Feb-24 20:29N 29°33' W 092°18'0 0.0
2017-Feb-23 06:09N 29°33' W 092°18'1 1.1
2017-Feb-23 05:33N 29°34' W 092°18'1514.8
2017-Feb-23 04:33N 29°47' W 092°10'3 3.3
2017-Feb-23 03:33N 29°49' W 092°08'0 0.0
2017-Feb-23 02:33N 29°49' W 092°08'  
2017-Feb-20 22:32N 29°49' W 092°08'0 0.0
2017-Feb-20 21:33N 29°49' W 092°08'0 0.0
2017-Feb-20 20:33N 29°49' W 092°08'0 0.0
2017-Feb-20 19:33N 29°49' W 092°08'0 0.0
2017-Feb-20 18:33N 29°49' W 092°08'0 0.0
2017-Feb-20 17:33N 29°49' W 092°08'0 0.0
2017-Feb-20 16:33N 29°49' W 092°08'0 0.0
2017-Feb-20 15:33N 29°49' W 092°08'0 0.0
2017-Feb-20 14:33N 29°49' W 092°08'0 0.0
2017-Feb-20 13:33N 29°49' W 092°08'0 0.0
2017-Feb-20 12:33N 29°49' W 092°08'0 0.0
2017-Feb-20 11:33N 29°49' W 092°08'0 0.0
2017-Feb-20 10:33N 29°49' W 092°08'0 0.0
2017-Feb-20 09:33N 29°49' W 092°08'0 0.0
2017-Feb-20 08:33N 29°49' W 092°08'0 0.0
2017-Feb-20 07:33N 29°49' W 092°08'0 0.0
2017-Feb-20 06:33N 29°49' W 092°08'0 0.0
2017-Feb-20 05:33N 29°49' W 092°08'0 0.0
2017-Feb-20 04:33N 29°49' W 092°08'0 0.0
2017-Feb-20 03:33N 29°49' W 092°08'0 0.0
2017-Feb-20 02:33N 29°49' W 092°08'0 0.0
2017-Feb-20 01:33N 29°49' W 092°08'0 0.0
2017-Feb-20 00:33N 29°49' W 092°08'0 0.0
2017-Feb-19 23:33N 29°49' W 092°08'0 0.0
2017-Feb-19 22:33N 29°49' W 092°08'0 0.0
2017-Feb-19 21:33N 29°49' W 092°08'0 0.0
2017-Feb-19 20:33N 29°49' W 092°08'0 0.0
2017-Feb-19 19:33N 29°49' W 092°08'0 0.0
2017-Feb-19 18:33N 29°49' W 092°08'0 0.0
2017-Feb-19 17:33N 29°49' W 092°08'0 0.0
2017-Feb-19 16:33N 29°49' W 092°08'0 0.0
2017-Feb-19 15:33N 29°49' W 092°08'0 0.0
2017-Feb-19 14:33N 29°49' W 092°08'0 0.0
2017-Feb-19 13:33N 29°49' W 092°08'0 0.0
2017-Feb-19 12:33N 29°49' W 092°08'0 0.0
2017-Feb-19 11:31N 29°49' W 092°08'0 0.0
2017-Feb-19 10:33N 29°49' W 092°08'0 0.0
2017-Feb-19 09:33N 29°49' W 092°08'0 0.0
2017-Feb-19 08:33N 29°49' W 092°08'0 0.0
2017-Feb-19 07:33N 29°49' W 092°08'0 0.0
2017-Feb-19 05:33N 29°49' W 092°08'0 0.0
2017-Feb-19 04:33N 29°49' W 092°08'0 0.0
2017-Feb-19 03:33N 29°49' W 092°08'0 0.0
2017-Feb-19 02:33N 29°49' W 092°08'0 0.0
2017-Feb-19 01:33N 29°49' W 092°08'0 0.0
2017-Feb-19 00:33N 29°49' W 092°08'0 0.0
2017-Feb-18 23:33N 29°49' W 092°08'0 0.0
2017-Feb-18 22:33N 29°49' W 092°08'0 0.0
2017-Feb-18 21:33N 29°49' W 092°08'0 0.0
2017-Feb-18 20:33N 29°49' W 092°08'0 0.0
2017-Feb-18 19:33N 29°49' W 092°08'0 0.0
2017-Feb-18 18:33N 29°49' W 092°08'0 0.0
2017-Feb-18 17:33N 29°49' W 092°08'0 0.0
2017-Feb-18 16:33N 29°49' W 092°08'0 0.0
2017-Feb-18 15:33N 29°49' W 092°08'0 0.0
2017-Feb-18 14:33N 29°49' W 092°08'0 0.0
2017-Feb-18 13:33N 29°49' W 092°08'0 0.0
2017-Feb-18 12:33N 29°49' W 092°08'0 0.0
2017-Feb-18 11:33N 29°49' W 092°08'0 0.0
2017-Feb-18 10:33N 29°49' W 092°08'0 0.0
2017-Feb-18 09:33N 29°49' W 092°08'0 0.0
2017-Feb-18 05:33N 29°49' W 092°08'0 0.0
2017-Feb-18 04:34N 29°49' W 092°08'0 0.0
2017-Feb-18 03:34N 29°49' W 092°08'0 0.0
2017-Feb-18 02:34N 29°49' W 092°08'0 0.0
2017-Feb-18 01:34N 29°49' W 092°08'0 0.0
2017-Feb-18 00:34N 29°49' W 092°08'0 0.0
2017-Feb-17 23:34N 29°49' W 092°08'0 0.0
2017-Feb-17 22:34N 29°49' W 092°08'0 0.0
2017-Feb-17 21:34N 29°49' W 092°08'0 0.0
2017-Feb-17 20:33N 29°49' W 092°08'0 0.0
2017-Feb-17 19:34N 29°49' W 092°08'0 0.0
2017-Feb-17 18:33N 29°49' W 092°08'0 0.0
2017-Feb-17 17:33N 29°49' W 092°08'0 0.0
2017-Feb-17 16:33N 29°49' W 092°08'0 0.0
2017-Feb-17 15:34N 29°49' W 092°08'0 0.0
2017-Feb-17 14:34N 29°49' W 092°08'0 0.0
2017-Feb-17 13:33N 29°49' W 092°08'0 0.0
2017-Feb-17 12:34N 29°49' W 092°08'0 0.0
2017-Feb-17 11:34N 29°49' W 092°08'0 0.0
2017-Feb-17 10:33N 29°49' W 092°08'0 0.0
2017-Feb-17 05:33N 29°49' W 092°08'0 0.0
2017-Feb-17 04:33N 29°49' W 092°08'0 0.0
2017-Feb-17 03:33N 29°49' W 092°08'0 0.0
2017-Feb-17 02:33N 29°49' W 092°08'0 0.0
2017-Feb-17 01:33N 29°49' W 092°08'0 0.0
2017-Feb-17 00:33N 29°49' W 092°08'0 0.0
2017-Feb-16 23:33N 29°49' W 092°08'0 0.0
2017-Feb-16 22:33N 29°49' W 092°08'0 0.0
2017-Feb-16 21:33N 29°49' W 092°08'0 0.0
2017-Feb-16 20:33N 29°49' W 092°08'0 0.0
2017-Feb-16 19:33N 29°49' W 092°08'0 0.0
2017-Feb-16 18:33N 29°49' W 092°08'0 0.0
2017-Feb-16 17:33N 29°49' W 092°08'0 0.0
2017-Feb-16 16:33N 29°49' W 092°08'0 0.0
2017-Feb-16 15:33N 29°49' W 092°08'0 0.0
2017-Feb-16 14:33N 29°49' W 092°08'0 0.0
2017-Feb-16 13:33N 29°49' W 092°08'0 0.0
2017-Feb-16 12:33N 29°49' W 092°08'0 0.0
2017-Feb-16 11:33N 29°49' W 092°08'0 0.0
2017-Feb-16 10:33N 29°49' W 092°08'0 0.0
2017-Feb-16 09:33N 29°49' W 092°08'0 0.0
2017-Feb-16 08:33N 29°49' W 092°08'0 0.0
2017-Feb-16 07:33N 29°49' W 092°08'0 0.0
2017-Feb-16 06:14N 29°49' W 092°08'0 0.0
2017-Feb-16 05:33N 29°49' W 092°08'0 0.0
2017-Feb-16 04:33N 29°49' W 092°08'0 0.0
2017-Feb-16 03:33N 29°49' W 092°08'0 0.0
2017-Feb-16 02:33N 29°49' W 092°08'0 0.0
2017-Feb-16 01:33N 29°49' W 092°08'0 0.0
2017-Feb-16 00:33N 29°49' W 092°08'0 0.0
2017-Feb-15 23:33N 29°49' W 092°08'1 0.5
2017-Feb-15 22:33N 29°49' W 092°08'2 2.3
2017-Feb-15 21:33N 29°47' W 092°09'1 1.1
2017-Feb-15 20:33N 29°47' W 092°10'1 0.7
2017-Feb-15 19:33N 29°47' W 092°11'0 0.0
2017-Feb-15 18:33N 29°47' W 092°11'0 0.0
2017-Feb-15 17:33N 29°47' W 092°11'0 0.4
2017-Feb-15 16:33N 29°47' W 092°11'3 3.4
2017-Feb-15 15:33N 29°49' W 092°08'1 0.6
2017-Feb-15 14:33N 29°49' W 092°08'0 0.0
2017-Feb-15 13:33N 29°49' W 092°08'0 0.0
2017-Feb-15 12:33N 29°49' W 092°08'0 0.0
2017-Feb-15 11:33N 29°49' W 092°08'0 0.0
2017-Feb-15 05:33N 29°49' W 092°08'  

Dump ship's entire track history